createdAt,value
2018-03-09T00:00:18.904Z,4.32
2018-03-09T00:01:19.469Z,4.30
2018-03-09T00:02:20.032Z,4.38
2018-03-09T00:03:20.596Z,4.42
2018-03-09T00:04:21.160Z,4.42
2018-03-09T00:05:21.725Z,4.42
2018-03-09T00:06:22.290Z,4.31
2018-03-09T00:07:22.859Z,4.35
2018-03-09T00:08:23.420Z,4.34
2018-03-09T00:09:23.984Z,4.37
2018-03-09T00:10:24.549Z,4.31
2018-03-09T00:11:25.114Z,4.23
2018-03-09T00:12:25.679Z,4.22
2018-03-09T00:13:26.244Z,4.16
2018-03-09T00:14:26.809Z,4.22
2018-03-09T00:15:27.373Z,4.14
2018-03-09T00:16:27.937Z,4.14
2018-03-09T00:17:28.501Z,4.20
2018-03-09T00:18:29.064Z,4.17
2018-03-09T00:19:29.629Z,4.19
2018-03-09T00:20:30.195Z,4.16
2018-03-09T00:21:30.761Z,4.20
2018-03-09T00:22:31.331Z,4.14
2018-03-09T00:23:31.893Z,4.12
2018-03-09T00:24:32.459Z,4.13
2018-03-09T00:25:33.025Z,4.17
2018-03-09T00:26:33.594Z,4.06
2018-03-09T00:27:34.158Z,4.10
2018-03-09T00:28:34.725Z,4.06
2018-03-09T00:29:35.289Z,4.14
2018-03-09T00:30:35.858Z,4.14
2018-03-09T00:31:36.432Z,4.13
2018-03-09T00:32:36.999Z,4.20
2018-03-09T00:33:37.564Z,4.02
2018-03-09T00:34:38.135Z,4.13
2018-03-09T00:35:38.706Z,4.05
2018-03-09T00:36:39.273Z,4.16
2018-03-09T00:37:39.839Z,4.16
2018-03-09T00:38:40.408Z,4.12
2018-03-09T00:39:40.968Z,4.05
2018-03-09T00:40:41.543Z,4.02
2018-03-09T00:41:42.109Z,4.08
2018-03-09T00:42:42.673Z,3.95
2018-03-09T00:43:43.242Z,4.02
2018-03-09T00:44:43.803Z,3.99
2018-03-09T00:45:44.425Z,4.05
2018-03-09T00:46:44.947Z,3.95
2018-03-09T00:47:45.497Z,4.08
2018-03-09T00:48:46.063Z,4.04
2018-03-09T00:49:46.645Z,4.08
2018-03-09T00:50:47.196Z,4.04
2018-03-09T00:51:47.763Z,4.04
2018-03-09T00:52:48.327Z,3.99
2018-03-09T00:53:48.895Z,3.95
2018-03-09T00:54:49.460Z,3.91
2018-03-09T00:55:50.024Z,3.94
2018-03-09T00:56:50.589Z,3.98
2018-03-09T00:57:51.155Z,3.88
2018-03-09T00:58:51.719Z,3.84
2018-03-09T00:59:52.283Z,3.81
2018-03-09T01:00:52.861Z,3.84
2018-03-09T01:01:53.426Z,3.91
2018-03-09T01:02:53.991Z,3.94
2018-03-09T01:03:54.555Z,3.91
2018-03-09T01:04:55.122Z,3.88
2018-03-09T01:05:55.687Z,3.94
2018-03-09T01:06:56.252Z,3.95
2018-03-09T01:07:56.816Z,3.87
2018-03-09T01:08:57.383Z,3.88
2018-03-09T01:09:57.946Z,3.92
2018-03-09T01:10:58.511Z,3.91
2018-03-09T01:11:59.088Z,3.86
2018-03-09T01:12:59.652Z,3.81
2018-03-09T01:14:00.218Z,3.76
2018-03-09T01:15:00.782Z,3.77
2018-03-09T01:16:01.349Z,3.77
2018-03-09T01:17:01.914Z,3.63
2018-03-09T01:18:02.479Z,3.65
2018-03-09T01:19:03.042Z,3.65
2018-03-09T01:20:03.609Z,3.70
2018-03-09T01:21:04.172Z,3.60
2018-03-09T01:22:04.736Z,3.65
2018-03-09T01:23:05.301Z,3.60
2018-03-09T01:24:05.865Z,3.63
2018-03-09T01:25:06.429Z,3.58
2018-03-09T01:26:06.994Z,3.62
2018-03-09T01:27:07.559Z,3.60
2018-03-09T01:28:08.123Z,3.58
2018-03-09T01:29:08.687Z,3.62
2018-03-09T01:30:09.252Z,3.53
2018-03-09T01:31:09.831Z,3.47
2018-03-09T01:32:10.393Z,3.51
2018-03-09T01:33:10.967Z,3.58
2018-03-09T01:34:11.536Z,3.55
2018-03-09T01:35:12.102Z,3.56
2018-03-09T01:36:12.690Z,3.58
2018-03-09T01:37:13.233Z,3.56
2018-03-09T01:38:13.801Z,3.55
2018-03-09T01:39:14.376Z,3.48
2018-03-09T01:40:14.942Z,3.58
2018-03-09T01:41:15.526Z,3.55
2018-03-09T01:42:16.077Z,3.53
2018-03-09T01:43:16.639Z,3.59
2018-03-09T01:44:17.205Z,3.63
2018-03-09T01:45:17.771Z,3.63
2018-03-09T01:46:18.335Z,3.66
2018-03-09T01:47:18.900Z,3.58
2018-03-09T01:48:19.466Z,3.66
2018-03-09T01:49:20.041Z,3.60
2018-03-09T01:50:20.617Z,3.53
2018-03-09T01:51:21.185Z,3.50
2018-03-09T01:52:21.746Z,3.56
2018-03-09T01:53:22.310Z,3.58
2018-03-09T01:54:22.877Z,3.59
2018-03-09T01:55:23.437Z,3.58
2018-03-09T01:56:24.002Z,3.51
2018-03-09T01:57:24.590Z,3.51
2018-03-09T01:58:25.132Z,3.48
2018-03-09T01:59:25.699Z,3.48
2018-03-09T02:00:26.262Z,3.50
2018-03-09T02:01:26.827Z,3.53
2018-03-09T02:02:27.393Z,3.53
2018-03-09T02:03:27.960Z,3.50
2018-03-09T02:04:28.525Z,3.53
2018-03-09T02:05:29.103Z,3.50
2018-03-09T02:06:29.670Z,3.44
2018-03-09T02:07:30.232Z,3.47
2018-03-09T02:08:30.797Z,3.47
2018-03-09T02:09:31.363Z,3.51
2018-03-09T02:10:31.929Z,3.42
2018-03-09T02:11:32.495Z,3.37
2018-03-09T02:12:33.064Z,3.34
2018-03-09T02:13:33.628Z,3.45
2018-03-09T02:14:34.197Z,3.50
2018-03-09T02:15:34.771Z,3.48
2018-03-09T02:16:35.336Z,3.44
2018-03-09T02:17:35.903Z,3.41
2018-03-09T02:18:36.467Z,3.37
2018-03-09T02:19:37.035Z,3.44
2018-03-09T02:20:37.598Z,3.34
2018-03-09T02:21:38.163Z,3.32
2018-03-09T02:22:38.728Z,3.40
2018-03-09T02:23:39.292Z,3.34
2018-03-09T02:24:39.857Z,3.32
2018-03-09T02:25:40.421Z,3.25
2018-03-09T02:26:40.986Z,3.28
2018-03-09T02:27:41.550Z,3.23
2018-03-09T02:28:42.114Z,3.23
2018-03-09T02:29:42.677Z,3.18
2018-03-09T02:30:43.243Z,3.31
2018-03-09T02:31:43.804Z,3.25
2018-03-09T02:32:44.370Z,3.28
2018-03-09T02:33:44.941Z,3.23
2018-03-09T02:34:45.507Z,3.42
2018-03-09T02:35:46.072Z,3.32
2018-03-09T02:36:46.647Z,3.21
2018-03-09T02:37:47.226Z,3.25
2018-03-09T02:38:47.788Z,3.21
2018-03-09T02:39:48.354Z,3.23
2018-03-09T02:40:48.917Z,3.22
2018-03-09T02:41:49.491Z,3.25
2018-03-09T02:42:50.057Z,3.34
2018-03-09T02:43:50.619Z,3.34
2018-03-09T02:44:51.183Z,3.26
2018-03-09T02:45:51.745Z,3.29
2018-03-09T02:46:52.321Z,3.25
2018-03-09T02:47:52.887Z,3.36
2018-03-09T02:48:53.454Z,3.32
2018-03-09T02:49:54.019Z,3.41
2018-03-09T02:50:54.584Z,3.45
2018-03-09T02:51:55.148Z,3.41
2018-03-09T02:52:55.712Z,3.34
2018-03-09T02:53:56.276Z,3.32
2018-03-09T02:54:56.841Z,3.22
2018-03-09T02:55:57.406Z,3.31
2018-03-09T02:56:57.970Z,3.36
2018-03-09T02:57:58.532Z,3.29
2018-03-09T02:58:59.096Z,3.37
2018-03-09T02:59:59.660Z,3.42
2018-03-09T03:01:00.236Z,3.40
2018-03-09T03:02:00.801Z,3.40
2018-03-09T03:03:01.377Z,3.28
2018-03-09T03:04:01.941Z,3.34
2018-03-09T03:05:02.505Z,3.31
2018-03-09T03:06:03.069Z,3.32
2018-03-09T03:07:03.636Z,3.23
2018-03-09T03:08:04.201Z,3.31
2018-03-09T03:09:04.772Z,3.19
2018-03-09T03:10:05.337Z,3.28
2018-03-09T03:11:05.903Z,3.36
2018-03-09T03:12:06.468Z,3.32
2018-03-09T03:13:07.045Z,3.31
2018-03-09T03:14:07.611Z,3.31
2018-03-09T03:15:08.176Z,3.36
2018-03-09T03:16:08.743Z,3.45
2018-03-09T03:17:09.309Z,3.32
2018-03-09T03:18:09.874Z,3.44
2018-03-09T03:19:10.442Z,3.34
2018-03-09T03:20:11.004Z,3.36
2018-03-09T03:21:11.568Z,3.37
2018-03-09T03:22:12.137Z,3.40
2018-03-09T03:23:12.696Z,3.32
2018-03-09T03:24:13.259Z,3.29
2018-03-09T03:25:13.829Z,3.28
2018-03-09T03:26:14.389Z,3.37
2018-03-09T03:27:14.953Z,3.44
2018-03-09T03:28:15.519Z,3.34
2018-03-09T03:29:16.083Z,3.40
2018-03-09T03:30:16.647Z,3.31
2018-03-09T03:31:17.213Z,3.44
2018-03-09T03:32:17.774Z,3.50
2018-03-09T03:33:18.340Z,3.48
2018-03-09T03:34:18.902Z,3.45
2018-03-09T03:35:19.479Z,3.47
2018-03-09T03:36:20.051Z,3.41
2018-03-09T03:37:20.616Z,3.50
2018-03-09T03:38:21.200Z,3.55
2018-03-09T03:39:21.766Z,3.44
2018-03-09T03:40:22.336Z,3.45
2018-03-09T03:41:22.898Z,3.32
2018-03-09T03:42:29.740Z,3.48
2018-03-09T03:43:30.306Z,3.51
2018-03-09T03:44:30.882Z,3.55
2018-03-09T03:45:31.446Z,3.53
2018-03-09T03:46:32.013Z,3.48
2018-03-09T03:47:32.578Z,3.53
2018-03-09T03:48:33.153Z,3.55
2018-03-09T03:49:33.716Z,3.56
2018-03-09T03:50:34.292Z,3.62
2018-03-09T03:51:34.857Z,3.58
2018-03-09T03:52:35.420Z,3.59
2018-03-09T03:53:35.996Z,3.60
2018-03-09T03:54:36.559Z,3.63
2018-03-09T03:55:37.123Z,3.69
2018-03-09T03:56:37.688Z,3.66
2018-03-09T03:57:38.252Z,3.59
2018-03-09T03:58:38.816Z,3.60
2018-03-09T03:59:39.379Z,3.63
2018-03-09T04:00:39.956Z,3.66
2018-03-09T04:01:40.519Z,3.78
2018-03-09T04:02:41.084Z,3.70
2018-03-09T04:03:41.648Z,3.69
2018-03-09T04:04:42.213Z,3.69
2018-03-09T04:05:42.777Z,3.66
2018-03-09T04:06:43.353Z,3.60
2018-03-09T04:07:43.928Z,3.62
2018-03-09T04:08:44.492Z,3.69
2018-03-09T04:09:45.057Z,3.62
2018-03-09T04:10:45.619Z,3.70
2018-03-09T04:11:46.184Z,3.66
2018-03-09T04:12:46.748Z,3.69
2018-03-09T04:13:47.318Z,3.60
2018-03-09T04:14:47.878Z,3.68
2018-03-09T04:15:48.442Z,3.76
2018-03-09T04:16:49.007Z,3.68
2018-03-09T04:17:49.571Z,3.80
2018-03-09T04:18:50.136Z,3.74
2018-03-09T04:19:50.698Z,3.74
2018-03-09T04:20:51.261Z,3.84
2018-03-09T04:21:51.824Z,3.77
2018-03-09T04:22:52.399Z,3.86
2018-03-09T04:23:52.954Z,3.80
2018-03-09T04:24:53.517Z,3.69
2018-03-09T04:25:54.080Z,3.78
2018-03-09T04:26:54.646Z,3.81
2018-03-09T04:27:55.211Z,3.80
2018-03-09T04:28:55.778Z,3.83
2018-03-09T04:29:56.339Z,3.84
2018-03-09T04:30:56.903Z,3.78
2018-03-09T04:31:57.466Z,3.84
2018-03-09T04:32:58.031Z,3.86
2018-03-09T04:33:58.595Z,3.76
2018-03-09T04:34:59.157Z,3.78
2018-03-09T04:35:59.720Z,3.78
2018-03-09T04:37:00.285Z,3.80
2018-03-09T04:38:00.850Z,3.76
2018-03-09T04:39:01.415Z,3.76
2018-03-09T04:40:01.982Z,3.77
2018-03-09T04:41:02.545Z,3.76
2018-03-09T04:42:03.121Z,3.81
2018-03-09T04:43:03.688Z,3.77
2018-03-09T04:44:04.257Z,3.65
2018-03-09T04:45:04.828Z,3.74
2018-03-09T04:46:05.395Z,3.66
2018-03-09T04:47:05.960Z,3.62
2018-03-09T04:48:06.530Z,3.76
2018-03-09T04:49:07.092Z,3.77
2018-03-09T04:50:07.658Z,3.81
2018-03-09T04:51:08.222Z,3.76
2018-03-09T04:52:08.790Z,3.76
2018-03-09T04:53:09.353Z,3.70
2018-03-09T04:54:09.930Z,3.78
2018-03-09T04:55:10.498Z,3.66
2018-03-09T04:56:11.061Z,3.74
2018-03-09T04:57:11.627Z,3.68
2018-03-09T04:58:12.192Z,3.83
2018-03-09T04:59:12.769Z,3.76
2018-03-09T05:00:13.336Z,3.74
2018-03-09T05:01:13.900Z,3.74
2018-03-09T05:02:14.466Z,3.74
2018-03-09T05:03:15.030Z,3.63
2018-03-09T05:04:15.604Z,3.69
2018-03-09T05:05:16.168Z,3.69
2018-03-09T05:06:16.731Z,3.80
2018-03-09T05:07:17.296Z,3.68
2018-03-09T05:08:17.861Z,3.77
2018-03-09T05:09:18.425Z,3.80
2018-03-09T05:10:18.993Z,3.88
2018-03-09T05:11:19.554Z,3.81
2018-03-09T05:12:20.118Z,3.91
2018-03-09T05:13:20.681Z,3.88
2018-03-09T05:14:21.244Z,3.87
2018-03-09T05:15:21.819Z,3.92
2018-03-09T05:16:22.389Z,3.86
2018-03-09T05:17:22.951Z,3.86
2018-03-09T05:18:23.515Z,3.92
2018-03-09T05:19:24.081Z,3.88
2018-03-09T05:20:24.655Z,3.91
2018-03-09T05:21:25.220Z,3.88
2018-03-09T05:22:25.782Z,3.95
2018-03-09T05:23:26.353Z,3.87
2018-03-09T05:24:26.914Z,3.95
2018-03-09T05:25:27.475Z,3.87
2018-03-09T05:26:28.039Z,3.95
2018-03-09T05:27:28.603Z,4.04
2018-03-09T05:28:29.167Z,4.10
2018-03-09T05:29:29.736Z,4.04
2018-03-09T05:30:30.294Z,4.04
2018-03-09T05:31:30.857Z,3.94
2018-03-09T05:32:31.422Z,3.88
2018-03-09T05:33:31.986Z,3.83
2018-03-09T05:34:32.554Z,3.92
2018-03-09T05:35:33.126Z,3.87
2018-03-09T05:36:33.693Z,4.04
2018-03-09T05:37:34.258Z,4.04
2018-03-09T05:38:34.825Z,4.04
2018-03-09T05:39:35.399Z,4.06
2018-03-09T05:40:35.964Z,3.96
2018-03-09T05:41:36.534Z,4.02
2018-03-09T05:42:37.098Z,3.99
2018-03-09T05:43:37.662Z,4.05
2018-03-09T05:44:38.226Z,3.94
2018-03-09T05:45:38.804Z,3.96
2018-03-09T05:46:39.369Z,4.02
2018-03-09T05:47:39.935Z,4.01
2018-03-09T05:48:40.501Z,3.96
2018-03-09T05:49:41.066Z,3.99
2018-03-09T05:50:41.641Z,3.96
2018-03-09T05:51:42.204Z,4.10
2018-03-09T05:52:42.771Z,4.05
2018-03-09T05:53:43.334Z,4.10
2018-03-09T05:54:43.899Z,4.06
2018-03-09T05:55:44.464Z,4.04
2018-03-09T05:56:45.042Z,3.96
2018-03-09T05:57:45.608Z,3.98
2018-03-09T05:58:46.172Z,4.04
2018-03-09T05:59:46.736Z,4.04
2018-03-09T06:00:47.300Z,4.08
2018-03-09T06:01:47.865Z,4.01
2018-03-09T06:02:48.430Z,4.02
2018-03-09T06:03:48.997Z,4.08
2018-03-09T06:04:49.561Z,4.10
2018-03-09T06:05:50.129Z,3.98
2018-03-09T06:06:50.691Z,4.02
2018-03-09T06:07:51.260Z,4.12
2018-03-09T06:08:51.823Z,4.16
2018-03-09T06:09:52.390Z,4.05
2018-03-09T06:10:52.964Z,4.05
2018-03-09T06:11:53.531Z,4.10
2018-03-09T06:12:54.095Z,4.06
2018-03-09T06:13:54.661Z,4.02
2018-03-09T06:14:55.238Z,4.02
2018-03-09T06:15:55.803Z,4.02
2018-03-09T06:16:56.368Z,4.01
2018-03-09T06:17:56.933Z,3.98
2018-03-09T06:18:57.499Z,3.99
2018-03-09T06:19:58.064Z,4.02
2018-03-09T06:20:58.629Z,4.01
2018-03-09T06:21:59.193Z,4.06
2018-03-09T06:22:59.758Z,3.95
2018-03-09T06:24:00.325Z,4.01
2018-03-09T06:25:00.892Z,4.04
2018-03-09T06:26:01.470Z,4.05
2018-03-09T06:27:02.036Z,4.06
2018-03-09T06:28:02.601Z,4.06
2018-03-09T06:29:03.165Z,4.13
2018-03-09T06:30:03.731Z,4.06
2018-03-09T06:31:04.295Z,4.08
2018-03-09T06:32:04.861Z,4.05
2018-03-09T06:33:05.429Z,4.06
2018-03-09T06:34:05.993Z,4.06
2018-03-09T06:35:06.560Z,4.01
2018-03-09T06:36:07.126Z,4.01
2018-03-09T06:37:07.694Z,4.05
2018-03-09T06:38:08.260Z,3.98
2018-03-09T06:39:08.856Z,4.02
2018-03-09T06:40:09.392Z,4.10
2018-03-09T06:41:09.955Z,4.13
2018-03-09T06:42:10.522Z,4.06
2018-03-09T06:43:54.331Z,4.02
2018-03-09T06:44:54.900Z,3.99
2018-03-09T06:45:55.469Z,4.04
2018-03-09T06:46:56.034Z,4.01
2018-03-09T06:47:56.600Z,4.02
2018-03-09T06:48:57.170Z,3.96
2018-03-09T06:49:57.746Z,4.01
2018-03-09T06:50:58.310Z,3.96
2018-03-09T06:51:58.878Z,3.99
2018-03-09T06:52:59.448Z,4.02
2018-03-09T06:54:00.012Z,3.94
2018-03-09T06:55:00.582Z,3.92
2018-03-09T06:56:01.149Z,4.06
2018-03-09T06:57:01.715Z,4.01
2018-03-09T06:58:02.281Z,4.05
2018-03-09T06:59:02.850Z,3.92
2018-03-09T07:00:03.416Z,3.94
2018-03-09T07:01:04.025Z,4.01
2018-03-09T07:02:04.551Z,3.96
2018-03-09T07:03:05.119Z,3.94
2018-03-09T07:04:05.688Z,3.88
2018-03-09T07:05:06.258Z,3.86
2018-03-09T07:06:06.822Z,4.01
2018-03-09T07:07:07.388Z,4.05
2018-03-09T07:08:08.005Z,4.05
2018-03-09T07:09:08.521Z,4.02
2018-03-09T07:10:09.099Z,4.01
2018-03-09T07:11:09.666Z,3.98
2018-03-09T07:12:10.232Z,3.91
2018-03-09T07:13:10.801Z,3.96
2018-03-09T07:14:11.381Z,4.05
2018-03-09T07:15:11.946Z,4.06
2018-03-09T07:16:12.513Z,4.05
2018-03-09T07:17:13.080Z,4.13
2018-03-09T07:18:13.650Z,4.06
2018-03-09T07:19:14.223Z,4.19
2018-03-09T07:20:14.786Z,4.20
2018-03-09T07:21:15.354Z,4.13
2018-03-09T07:22:15.922Z,4.12
2018-03-09T07:23:16.495Z,4.12
2018-03-09T07:24:17.068Z,4.16
2018-03-09T07:25:17.652Z,4.22
2018-03-09T07:26:18.233Z,4.22
2018-03-09T07:27:18.807Z,4.20
2018-03-09T07:28:19.376Z,4.14
2018-03-09T07:29:19.945Z,4.22
2018-03-09T07:30:20.513Z,4.12
2018-03-09T07:31:21.082Z,4.13
2018-03-09T07:32:21.649Z,4.30
2018-03-09T07:33:22.218Z,4.24
2018-03-09T07:34:22.793Z,4.23
2018-03-09T07:35:23.357Z,4.32
2018-03-09T07:36:23.927Z,4.32
2018-03-09T07:37:24.495Z,4.32
2018-03-09T07:38:25.069Z,4.35
2018-03-09T07:39:25.636Z,4.45
2018-03-09T07:40:26.205Z,4.56
2018-03-09T07:41:26.773Z,4.50
2018-03-09T07:42:27.342Z,4.40
2018-03-09T07:43:27.913Z,4.44
2018-03-09T07:44:28.481Z,4.59
2018-03-09T07:45:29.050Z,4.55
2018-03-09T07:46:29.619Z,4.56
2018-03-09T07:47:30.190Z,4.63
2018-03-09T07:48:30.771Z,4.53
2018-03-09T07:49:31.342Z,4.63
2018-03-09T07:50:31.913Z,4.63
2018-03-09T07:51:32.481Z,4.62
2018-03-09T07:52:33.050Z,4.74
2018-03-09T07:53:33.621Z,4.84
2018-03-09T07:54:34.190Z,4.78
2018-03-09T07:55:41.052Z,4.73
2018-03-09T07:56:41.663Z,4.77
2018-03-09T07:57:42.245Z,4.75
2018-03-09T07:58:42.811Z,4.74
2018-03-09T07:59:43.389Z,4.84
2018-03-09T08:00:43.972Z,4.87
2018-03-09T08:01:44.566Z,4.93
2018-03-09T08:02:45.144Z,4.96
2018-03-09T08:03:45.725Z,4.93
2018-03-09T08:04:46.304Z,4.86
2018-03-09T08:05:46.881Z,4.89
2018-03-09T08:06:47.468Z,4.96
2018-03-09T08:07:48.064Z,5.04
2018-03-09T08:08:48.661Z,5.07
2018-03-09T08:09:49.241Z,5.02
2018-03-09T08:10:49.821Z,4.97
2018-03-09T08:11:50.420Z,5.04
2018-03-09T08:12:51.021Z,5.08
2018-03-09T08:13:51.621Z,5.11
2018-03-09T08:14:52.200Z,5.08
2018-03-09T08:15:52.803Z,5.12
2018-03-09T08:16:53.381Z,5.26
2018-03-09T08:17:53.960Z,5.33
2018-03-09T08:18:54.540Z,5.35
2018-03-09T08:19:55.117Z,5.36
2018-03-09T08:20:55.697Z,5.26
2018-03-09T08:21:56.269Z,5.26
2018-03-09T08:22:56.852Z,5.36
2018-03-09T08:23:57.430Z,5.33
2018-03-09T08:24:58.009Z,5.33
2018-03-09T08:25:58.591Z,5.38
2018-03-09T08:26:59.227Z,5.48
2018-03-09T08:27:59.748Z,5.41
2018-03-09T08:29:00.334Z,5.30
2018-03-09T08:30:00.913Z,5.36
2018-03-09T08:31:01.491Z,5.47
2018-03-09T08:32:02.070Z,5.48
2018-03-09T08:33:02.672Z,5.50
2018-03-09T08:34:03.241Z,5.65
2018-03-09T08:35:03.824Z,5.64
2018-03-09T08:36:04.405Z,5.54
2018-03-09T08:37:04.985Z,5.50
2018-03-09T08:38:05.568Z,5.44
2018-03-09T08:39:06.166Z,5.51
2018-03-09T08:40:06.746Z,5.54
2018-03-09T08:41:07.325Z,5.64
2018-03-09T08:42:07.929Z,5.61
2018-03-09T08:43:08.506Z,5.62
2018-03-09T08:44:28.290Z,5.64
2018-03-09T08:45:28.867Z,5.68
2018-03-09T08:46:29.490Z,5.71
2018-03-09T08:47:30.026Z,5.68
2018-03-09T08:48:30.604Z,5.66
2018-03-09T08:49:31.184Z,5.73
2018-03-09T08:50:31.766Z,5.73
2018-03-09T08:51:32.345Z,5.76
2018-03-09T08:52:32.924Z,5.80
2018-03-09T08:53:33.504Z,5.83
2018-03-09T08:54:34.083Z,5.83
2018-03-09T08:55:34.655Z,5.84
2018-03-09T08:56:35.242Z,5.93
2018-03-09T08:57:35.854Z,5.82
2018-03-09T08:58:36.436Z,6.01
2018-03-09T08:59:37.014Z,6.05
2018-03-09T09:00:37.594Z,6.17
2018-03-09T09:01:38.175Z,6.09
2018-03-09T09:02:38.754Z,6.09
2018-03-09T09:03:39.332Z,6.07
2018-03-09T09:04:39.970Z,6.27
2018-03-09T09:05:40.491Z,6.31
2018-03-09T09:06:41.072Z,6.33
2018-03-09T09:07:41.656Z,6.33
2018-03-09T09:08:42.253Z,6.31
2018-03-09T09:09:42.834Z,6.36
2018-03-09T09:10:43.414Z,6.44
2018-03-09T09:11:43.992Z,6.62
2018-03-09T09:12:44.572Z,6.54
2018-03-09T09:13:45.151Z,6.45
2018-03-09T09:14:45.731Z,6.57
2018-03-09T09:15:46.314Z,6.39
2018-03-09T09:16:46.892Z,6.48
2018-03-09T09:17:47.472Z,6.51
2018-03-09T09:18:48.051Z,6.49
2018-03-09T09:19:48.664Z,6.56
2018-03-09T09:20:49.209Z,6.39
2018-03-09T09:21:49.795Z,6.38
2018-03-09T09:22:50.377Z,6.59
2018-03-09T09:23:50.952Z,6.42
2018-03-09T09:24:51.582Z,6.33
2018-03-09T09:25:52.134Z,6.44
2018-03-09T09:26:52.735Z,6.57
2018-03-09T09:27:53.315Z,6.70
2018-03-09T09:28:53.897Z,6.74
2018-03-09T09:29:54.478Z,6.57
2018-03-09T09:30:55.055Z,6.72
2018-03-09T09:31:55.635Z,6.59
2018-03-09T09:32:56.214Z,6.56
2018-03-09T09:33:56.798Z,6.62
2018-03-09T09:34:57.378Z,6.60
2018-03-09T09:35:57.966Z,6.60
2018-03-09T09:36:58.560Z,6.74
2018-03-09T09:37:59.141Z,6.70
2018-03-09T09:38:59.748Z,6.59
2018-03-09T09:40:00.299Z,6.70
2018-03-09T09:41:00.879Z,6.69
2018-03-09T09:42:01.458Z,6.66
2018-03-09T09:43:02.038Z,6.44
2018-03-09T09:44:02.609Z,6.60
2018-03-09T09:45:03.195Z,6.69
2018-03-09T09:46:03.773Z,6.69
2018-03-09T09:47:04.352Z,6.64
2018-03-09T09:48:04.933Z,6.72
2018-03-09T09:49:05.514Z,6.75
2018-03-09T09:50:06.094Z,6.82
2018-03-09T09:51:06.673Z,6.89
2018-03-09T09:52:07.254Z,6.95
2018-03-09T09:53:07.833Z,6.89
2018-03-09T09:54:08.414Z,6.82
2018-03-09T09:55:08.996Z,6.89
2018-03-09T09:56:09.574Z,6.92
2018-03-09T09:57:10.176Z,7.03
2018-03-09T09:58:10.757Z,7.14
2018-03-09T09:59:11.336Z,7.05
2018-03-09T10:00:11.916Z,7.06
2018-03-09T10:01:12.498Z,6.89
2018-03-09T10:02:13.078Z,6.96
2018-03-09T10:03:13.660Z,7.00
2018-03-09T10:04:14.241Z,7.07
2018-03-09T10:05:14.822Z,6.99
2018-03-09T10:06:15.403Z,6.99
2018-03-09T10:07:15.982Z,7.00
2018-03-09T10:08:16.562Z,6.99
2018-03-09T10:09:17.142Z,7.02
2018-03-09T10:10:17.724Z,7.06
2018-03-09T10:11:18.305Z,7.00
2018-03-09T10:12:18.884Z,7.31
2018-03-09T10:13:19.463Z,7.33
2018-03-09T10:14:20.042Z,7.39
2018-03-09T10:15:20.623Z,7.66
2018-03-09T10:16:21.222Z,7.75
2018-03-09T10:17:21.788Z,7.88
2018-03-09T10:18:22.367Z,7.83
2018-03-09T10:19:22.948Z,7.94
2018-03-09T10:20:23.550Z,7.98
2018-03-09T10:21:24.134Z,7.83
2018-03-09T10:22:24.701Z,7.69
2018-03-09T10:23:25.284Z,7.42
2018-03-09T10:24:25.876Z,7.54
2018-03-09T10:25:26.448Z,7.67
2018-03-09T10:26:27.029Z,7.73
2018-03-09T10:27:27.609Z,7.85
2018-03-09T10:28:28.190Z,7.72
2018-03-09T10:29:28.771Z,7.72
2018-03-09T10:30:29.352Z,7.54
2018-03-09T10:31:29.935Z,7.35
2018-03-09T10:32:30.535Z,7.47
2018-03-09T10:33:31.136Z,7.56
2018-03-09T10:34:31.718Z,7.80
2018-03-09T10:35:32.304Z,8.16
2018-03-09T10:36:32.881Z,8.31
2018-03-09T10:37:33.465Z,8.15
2018-03-09T10:38:34.044Z,8.20
2018-03-09T10:39:34.630Z,8.44
2018-03-09T10:40:35.207Z,8.48
2018-03-09T10:41:35.809Z,8.44
2018-03-09T10:42:36.390Z,8.58
2018-03-09T10:43:36.970Z,8.45
2018-03-09T10:44:37.563Z,8.41
2018-03-09T10:45:38.149Z,8.66
2018-03-09T10:46:38.731Z,8.64
2018-03-09T10:47:39.311Z,8.45
2018-03-09T10:48:39.893Z,8.48
2018-03-09T10:49:40.496Z,8.61
2018-03-09T10:50:41.078Z,8.55
2018-03-09T10:51:41.664Z,8.61
2018-03-09T10:52:42.244Z,8.64
2018-03-09T10:53:42.844Z,8.58
2018-03-09T10:54:43.427Z,8.56
2018-03-09T10:55:44.011Z,8.79
2018-03-09T10:56:44.591Z,8.92
2018-03-09T10:57:45.172Z,8.76
2018-03-09T10:58:45.753Z,8.73
2018-03-09T10:59:46.332Z,8.92
2018-03-09T11:00:46.915Z,9.03
2018-03-09T11:01:47.498Z,8.84
2018-03-09T11:02:48.078Z,8.71
2018-03-09T11:03:48.659Z,8.63
2018-03-09T11:04:49.242Z,8.71
2018-03-09T11:05:49.845Z,8.97
2018-03-09T11:06:50.427Z,8.94
2018-03-09T11:07:51.011Z,8.87
2018-03-09T11:08:51.591Z,8.60
2018-03-09T11:09:52.172Z,8.79
2018-03-09T11:10:52.755Z,8.48
2018-03-09T11:11:53.336Z,8.48
2018-03-09T11:12:53.917Z,8.31
2018-03-09T11:13:54.522Z,8.45
2018-03-09T11:14:55.123Z,8.33
2018-03-09T11:15:55.705Z,8.37
2018-03-09T11:16:56.289Z,8.18
2018-03-09T11:17:56.870Z,8.10
2018-03-09T11:18:57.450Z,8.13
2018-03-09T11:19:58.031Z,8.19
2018-03-09T11:20:58.612Z,8.15
2018-03-09T11:21:59.195Z,8.08
2018-03-09T11:22:59.768Z,8.13
2018-03-09T11:24:00.354Z,8.19
2018-03-09T11:25:00.937Z,8.30
2018-03-09T11:26:01.541Z,8.18
2018-03-09T11:27:02.121Z,8.24
2018-03-09T11:28:02.702Z,8.30
2018-03-09T11:29:03.283Z,8.37
2018-03-09T11:30:03.865Z,8.44
2018-03-09T11:31:04.448Z,8.52
2018-03-09T11:32:05.032Z,8.56
2018-03-09T11:33:05.630Z,8.61
2018-03-09T11:34:06.214Z,8.48
2018-03-09T11:35:06.785Z,8.66
2018-03-09T11:36:07.371Z,8.82
2018-03-09T11:37:07.975Z,9.19
2018-03-09T11:38:08.555Z,9.21
2018-03-09T11:39:09.135Z,9.41
2018-03-09T11:40:09.717Z,9.46
2018-03-09T11:41:10.298Z,9.68
2018-03-09T11:42:10.881Z,9.76
2018-03-09T11:43:11.464Z,9.79
2018-03-09T11:44:12.045Z,9.82
2018-03-09T11:45:12.627Z,9.76
2018-03-09T11:46:13.210Z,9.61
2018-03-09T11:47:13.792Z,9.47
2018-03-09T11:48:14.374Z,9.40
2018-03-09T11:49:14.956Z,9.50
2018-03-09T11:50:15.537Z,9.56
2018-03-09T11:51:16.119Z,9.83
2018-03-09T11:52:16.701Z,9.84
2018-03-09T11:53:17.309Z,9.66
2018-03-09T11:54:17.885Z,9.44
2018-03-09T11:55:18.469Z,9.51
2018-03-09T11:56:19.071Z,9.48
2018-03-09T11:57:19.652Z,9.31
2018-03-09T11:58:20.256Z,9.54
2018-03-09T11:59:20.837Z,9.47
2018-03-09T12:00:21.440Z,9.31
2018-03-09T12:01:22.022Z,9.28
2018-03-09T12:02:22.604Z,9.47
2018-03-09T12:03:23.187Z,9.36
2018-03-09T12:04:23.768Z,9.29
2018-03-09T12:05:24.351Z,9.37
2018-03-09T12:06:24.933Z,9.39
2018-03-09T12:07:25.516Z,9.43
2018-03-09T12:08:26.099Z,9.44
2018-03-09T12:09:26.678Z,9.44
2018-03-09T12:10:27.282Z,9.41
2018-03-09T12:11:27.863Z,9.34
2018-03-09T12:12:28.446Z,9.51
2018-03-09T12:13:29.027Z,9.56
2018-03-09T12:14:29.609Z,9.58
2018-03-09T12:15:30.193Z,9.56
2018-03-09T12:16:30.793Z,9.69
2018-03-09T12:17:31.376Z,9.59
2018-03-09T12:18:31.959Z,9.56
2018-03-09T12:19:32.560Z,9.56
2018-03-09T12:20:33.143Z,9.66
2018-03-09T12:21:33.725Z,9.84
2018-03-09T12:22:34.307Z,9.99
2018-03-09T12:23:34.889Z,10.10
2018-03-09T12:24:35.472Z,10.28
2018-03-09T12:25:36.055Z,10.19
2018-03-09T12:26:36.640Z,10.40
2018-03-09T12:27:37.229Z,10.05
2018-03-09T12:28:37.805Z,9.98
2018-03-09T12:29:38.387Z,9.91
2018-03-09T12:30:38.970Z,9.64
2018-03-09T12:31:39.551Z,9.79
2018-03-09T12:32:40.138Z,9.97
2018-03-09T12:33:40.724Z,9.91
2018-03-09T12:34:41.303Z,10.10
2018-03-09T12:35:41.871Z,9.69
2018-03-09T12:36:42.457Z,9.87
2018-03-09T12:37:43.039Z,9.91
2018-03-09T12:38:43.625Z,9.77
2018-03-09T12:39:44.205Z,9.77
2018-03-09T12:40:44.786Z,9.80
2018-03-09T12:41:45.369Z,9.77
2018-03-09T12:42:45.991Z,9.83
2018-03-09T12:43:46.534Z,9.84
2018-03-09T12:44:47.138Z,9.99
2018-03-09T12:46:06.929Z,9.86
2018-03-09T12:47:07.506Z,9.94
2018-03-09T12:48:08.089Z,9.89
2018-03-09T12:49:08.676Z,9.83
2018-03-09T12:50:09.253Z,9.76
2018-03-09T12:51:09.835Z,9.77
2018-03-09T12:52:10.416Z,9.86
2018-03-09T12:53:10.999Z,9.84
2018-03-09T12:54:11.582Z,9.95
2018-03-09T12:55:12.164Z,9.94
2018-03-09T12:56:12.746Z,9.94
2018-03-09T12:57:13.330Z,10.16
2018-03-09T12:58:13.912Z,10.16
2018-03-09T12:59:14.495Z,9.94
2018-03-09T13:00:15.080Z,10.15
2018-03-09T13:01:15.663Z,10.20
2018-03-09T13:02:16.246Z,10.20
2018-03-09T13:03:16.828Z,10.10
2018-03-09T13:04:17.467Z,10.22
2018-03-09T13:05:18.043Z,10.22
2018-03-09T13:06:18.603Z,10.12
2018-03-09T13:07:19.201Z,10.16
2018-03-09T13:08:19.791Z,10.23
2018-03-09T13:09:20.376Z,10.25
2018-03-09T13:10:20.980Z,10.33
2018-03-09T13:11:21.588Z,10.53
2018-03-09T13:12:22.169Z,10.60
2018-03-09T13:13:22.753Z,10.42
2018-03-09T13:14:23.337Z,10.56
2018-03-09T13:15:23.920Z,10.67
2018-03-09T13:16:24.503Z,10.64
2018-03-09T13:17:25.100Z,10.72
2018-03-09T13:18:25.674Z,10.78
2018-03-09T13:19:26.249Z,10.86
2018-03-09T13:20:26.825Z,10.79
2018-03-09T13:21:27.399Z,10.61
2018-03-09T13:22:27.985Z,10.79
2018-03-09T13:23:28.558Z,10.86
2018-03-09T13:24:29.132Z,10.69
2018-03-09T13:25:29.707Z,10.82
2018-03-09T13:26:30.281Z,10.81